sensor_id;sensor_type;location;lat;lon;timestamp;pressure;altitude;pressure_sealevel;temperature
67509;BMP280;54354;44.724;11.284;2022-11-14T00:02:29;102310.06;;;18.22
67509;BMP280;54354;44.724;11.284;2022-11-14T00:05:13;102307.38;;;18.22
67509;BMP280;54354;44.724;11.284;2022-11-14T00:07:57;102318.09;;;18.22
67509;BMP280;54354;44.724;11.284;2022-11-14T00:10:41;102311.66;;;18.20
67509;BMP280;54354;44.724;11.284;2022-11-14T00:13:25;102315.53;;;18.19
67509;BMP280;54354;44.724;11.284;2022-11-14T00:16:09;102314.34;;;18.20
67509;BMP280;54354;44.724;11.284;2022-11-14T00:18:53;102312.84;;;18.19
67509;BMP280;54354;44.724;11.284;2022-11-14T00:21:38;102313.69;;;18.15
67509;BMP280;54354;44.724;11.284;2022-11-14T00:24:22;102317.13;;;18.16
67509;BMP280;54354;44.724;11.284;2022-11-14T00:27:06;102314.84;;;18.14
67509;BMP280;54354;44.724;11.284;2022-11-14T00:29:50;102317.88;;;18.17
67509;BMP280;54354;44.724;11.284;2022-11-14T00:32:34;102309.06;;;18.16
67509;BMP280;54354;44.724;11.284;2022-11-14T00:35:18;102309.84;;;18.17
67509;BMP280;54354;44.724;11.284;2022-11-14T00:38:02;102311.75;;;18.16
67509;BMP280;54354;44.724;11.284;2022-11-14T00:40:46;102309.06;;;18.16
67509;BMP280;54354;44.724;11.284;2022-11-14T00:43:30;102307.97;;;18.13
67509;BMP280;54354;44.724;11.284;2022-11-14T00:46:14;102297.69;;;18.12
67509;BMP280;54354;44.724;11.284;2022-11-14T00:48:58;102298.41;;;18.12
67509;BMP280;54354;44.724;11.284;2022-11-14T00:51:42;102291.13;;;18.13
67509;BMP280;54354;44.724;11.284;2022-11-14T00:54:26;102287.28;;;18.14
67509;BMP280;54354;44.724;11.284;2022-11-14T00:57:10;102293.81;;;18.13
67509;BMP280;54354;44.724;11.284;2022-11-14T00:59:54;102297.69;;;18.12
67509;BMP280;54354;44.724;11.284;2022-11-14T01:02:38;102287.03;;;18.08
67509;BMP280;54354;44.724;11.284;2022-11-14T01:05:23;102290.56;;;18.05
67509;BMP280;54354;44.724;11.284;2022-11-14T01:08:08;102291.31;;;18.06
67509;BMP280;54354;44.724;11.284;2022-11-14T01:10:52;102288.94;;;18.08
67509;BMP280;54354;44.724;11.284;2022-11-14T01:13:36;102285.13;;;18.09
67509;BMP280;54354;44.724;11.284;2022-11-14T01:16:20;102282.44;;;18.09
67509;BMP280;54354;44.724;11.284;2022-11-14T01:19:04;102283.94;;;18.10
67509;BMP280;54354;44.724;11.284;2022-11-14T01:21:48;102285.13;;;18.09
67509;BMP280;54354;44.724;11.284;2022-11-14T01:24:33;102293.16;;;18.09
67509;BMP280;54354;44.724;11.284;2022-11-14T01:27:17;102288.63;;;18.06
67509;BMP280;54354;44.724;11.284;2022-11-14T01:30:02;102291.72;;;18.04
67509;BMP280;54354;44.724;11.284;2022-11-14T01:32:45;102296.00;;;18.02
67509;BMP280;54354;44.724;11.284;2022-11-14T01:35:31;102291.81;;;18.01
67509;BMP280;54354;44.724;11.284;2022-11-14T01:38:15;102290.22;;;18.03
67509;BMP280;54354;44.724;11.284;2022-11-14T01:40:59;102296.00;;;18.02
67509;BMP280;54354;44.724;11.284;2022-11-14T01:43:43;102295.25;;;18.01
67509;BMP280;54354;44.724;11.284;2022-11-14T01:46:35;102294.16;;;17.99
67509;BMP280;54354;44.724;11.284;2022-11-14T01:49:23;102288.38;;;18.00
67509;BMP280;54354;44.724;11.284;2022-11-14T01:55:04;102275.38;;;17.99
67509;BMP280;54354;44.724;11.284;2022-11-14T01:57:49;102265.00;;;18.01
67509;BMP280;54354;44.724;11.284;2022-11-14T02:00:33;102272.31;;;18.00
67509;BMP280;54354;44.724;11.284;2022-11-14T02:03:19;102279.28;;;17.98
67509;BMP280;54354;44.724;11.284;2022-11-14T02:06:03;102264.34;;;17.97
67509;BMP280;54354;44.724;11.284;2022-11-14T02:08:49;102257.13;;;17.94
67509;BMP280;54354;44.724;11.284;2022-11-14T03:53:17;102285.78;;;17.80
67509;BMP280;54354;44.724;11.284;2022-11-14T03:56:01;102279.34;;;17.78
67509;BMP280;54354;44.724;11.284;2022-11-14T03:58:45;102279.34;;;17.78
67509;BMP280;54354;44.724;11.284;2022-11-14T04:01:29;102278.13;;;17.79
67509;BMP280;54354;44.724;11.284;2022-11-14T04:04:13;102274.41;;;17.76
67509;BMP280;54354;44.724;11.284;2022-11-14T04:06:57;102279.75;;;17.76
67509;BMP280;54354;44.724;11.284;2022-11-14T04:09:41;102280.50;;;17.77
67509;BMP280;54354;44.724;11.284;2022-11-14T04:12:27;102270.94;;;17.76
67509;BMP280;54354;44.724;11.284;2022-11-14T04:15:11;102275.56;;;17.75
67509;BMP280;54354;44.724;11.284;2022-11-14T04:17:55;102281.66;;;17.76
67509;BMP280;54354;44.724;11.284;2022-11-14T04:20:39;102266.00;;;17.74
67509;BMP280;54354;44.724;11.284;2022-11-14T04:23:23;102262.25;;;17.72
67509;BMP280;54354;44.724;11.284;2022-11-14T04:26:07;102267.25;;;17.70
67509;BMP280;54354;44.724;11.284;2022-11-14T04:28:51;102274.19;;;17.67
67509;BMP280;54354;44.724;11.284;2022-11-14T04:31:35;102255.97;;;17.62
67509;BMP280;54354;44.724;11.284;2022-11-14T04:34:19;102257.53;;;17.59
67509;BMP280;54354;44.724;11.284;2022-11-14T04:37:03;102254.53;;;17.57
67509;BMP280;54354;44.724;11.284;2022-11-14T04:39:47;102254.94;;;17.56
67509;BMP280;54354;44.724;11.284;2022-11-14T04:42:31;102247.75;;;17.53
67509;BMP280;54354;44.724;11.284;2022-11-14T04:45:15;102249.69;;;17.52
67509;BMP280;54354;44.724;11.284;2022-11-14T04:47:59;102250.06;;;17.51
67509;BMP280;54354;44.724;11.284;2022-11-14T04:50:44;102240.97;;;17.48
67509;BMP280;54354;44.724;11.284;2022-11-14T04:53:29;102244.13;;;17.43
67509;BMP280;54354;44.724;11.284;2022-11-14T04:56:12;102245.44;;;17.35
67509;BMP280;54354;44.724;11.284;2022-11-14T04:58:56;102247.84;;;17.29
67509;BMP280;54354;44.724;11.284;2022-11-14T05:01:40;102242.22;;;17.24
67509;BMP280;54354;44.724;11.284;2022-11-14T05:04:24;102245.38;;;17.19
67509;BMP280;54354;44.724;11.284;2022-11-14T05:07:09;102248.91;;;17.16
67509;BMP280;54354;44.724;11.284;2022-11-14T05:09:53;102255.44;;;17.15
67509;BMP280;54354;44.724;11.284;2022-11-14T05:12:37;102260.78;;;17.15
67509;BMP280;54354;44.724;11.284;2022-11-14T05:15:21;102261.16;;;17.17
67509;BMP280;54354;44.724;11.284;2022-11-14T05:18:05;102251.50;;;17.19
67509;BMP280;54354;44.724;11.284;2022-11-14T05:20:50;102251.78;;;17.25
67509;BMP280;54354;44.724;11.284;2022-11-14T05:23:33;102259.31;;;17.30
67509;BMP280;54354;44.724;11.284;2022-11-14T05:26:18;102257.75;;;17.33
67509;BMP280;54354;44.724;11.284;2022-11-14T05:29:02;102259.25;;;17.34
67509;BMP280;54354;44.724;11.284;2022-11-14T05:31:47;102264.63;;;17.34
67509;BMP280;54354;44.724;11.284;2022-11-14T05:34:30;102263.44;;;17.35
67509;BMP280;54354;44.724;11.284;2022-11-14T05:37:14;102261.59;;;17.31
67509;BMP280;54354;44.724;11.284;2022-11-14T05:39:58;102261.50;;;17.35
67509;BMP280;54354;44.724;11.284;2022-11-14T05:42:42;102276.31;;;17.40
67509;BMP280;54354;44.724;11.284;2022-11-14T05:45:26;102283.97;;;17.41
67509;BMP280;54354;44.724;11.284;2022-11-14T05:48:10;102271.81;;;17.37
67509;BMP280;54354;44.724;11.284;2022-11-14T05:50:55;102269.22;;;17.33
67509;BMP280;54354;44.724;11.284;2022-11-14T05:53:40;102283.03;;;17.31
67509;BMP280;54354;44.724;11.284;2022-11-14T05:56:24;102291.81;;;17.32
67509;BMP280;54354;44.724;11.284;2022-11-14T05:59:08;102291.44;;;17.30
67509;BMP280;54354;44.724;11.284;2022-11-14T06:01:52;102291.53;;;17.26
67509;BMP280;54354;44.724;11.284;2022-11-14T06:04:37;102291.53;;;17.26
67509;BMP280;54354;44.724;11.284;2022-11-14T06:07:20;102291.94;;;17.25
67509;BMP280;54354;44.724;11.284;2022-11-14T06:10:05;102295.06;;;17.23
67509;BMP280;54354;44.724;11.284;2022-11-14T06:12:49;102285.81;;;17.24
67509;BMP280;54354;44.724;11.284;2022-11-14T06:15:33;102296.53;;;17.24
67509;BMP280;54354;44.724;11.284;2022-11-14T06:18:17;102296.97;;;17.23
67509;BMP280;54354;44.724;11.284;2022-11-14T06:21:04;102292.81;;;17.18
67509;BMP280;54354;44.724;11.284;2022-11-14T06:23:48;102297.00;;;17.19
67509;BMP280;54354;44.724;11.284;2022-11-14T06:26:32;102300.84;;;17.18
67509;BMP280;54354;44.724;11.284;2022-11-14T06:29:16;102303.53;;;17.18
67509;BMP280;54354;44.724;11.284;2022-11-14T06:32:00;102302.81;;;17.18
67509;BMP280;54354;44.724;11.284;2022-11-14T06:34:44;102295.94;;;17.17
67509;BMP280;54354;44.724;11.284;2022-11-14T06:37:28;102301.31;;;17.17
67509;BMP280;54354;44.724;11.284;2022-11-14T06:40:12;102298.63;;;17.17
67509;BMP280;54354;44.724;11.284;2022-11-14T06:42:56;102297.47;;;17.18
67509;BMP280;54354;44.724;11.284;2022-11-14T06:45:40;102294.78;;;17.18
67509;BMP280;54354;44.724;11.284;2022-11-14T06:48:24;102293.28;;;17.17
67509;BMP280;54354;44.724;11.284;2022-11-14T06:51:10;102303.19;;;17.16
67509;BMP280;54354;44.724;11.284;2022-11-14T06:53:54;102302.81;;;17.18
67509;BMP280;54354;44.724;11.284;2022-11-14T06:56:38;102287.47;;;17.18
67509;BMP280;54354;44.724;11.284;2022-11-14T06:59:22;102288.16;;;17.22
67509;BMP280;54354;44.724;11.284;2022-11-14T07:02:06;102278.91;;;17.27
67509;BMP280;54354;44.724;11.284;2022-11-14T07:04:50;102291.88;;;17.28
67509;BMP280;54354;44.724;11.284;2022-11-14T07:07:33;102291.06;;;17.31
67509;BMP280;54354;44.724;11.284;2022-11-14T07:10:17;102307.78;;;17.36
67509;BMP280;54354;44.724;11.284;2022-11-14T07:13:01;102307.03;;;17.35
67509;BMP280;54354;44.724;11.284;2022-11-14T07:15:50;102302.09;;;17.34
67509;BMP280;54354;44.724;11.284;2022-11-14T07:18:35;102305.78;;;17.40
67509;BMP280;54354;44.724;11.284;2022-11-14T07:21:18;102310.75;;;17.41
67509;BMP280;54354;44.724;11.284;2022-11-14T07:24:03;102305.41;;;17.41
67509;BMP280;54354;44.724;11.284;2022-11-14T07:26:47;102303.38;;;17.45
67509;BMP280;54354;44.724;11.284;2022-11-14T07:29:31;102313.69;;;17.47
67509;BMP280;54354;44.724;11.284;2022-11-14T07:32:15;102318.97;;;17.50
67509;BMP280;54354;44.724;11.284;2022-11-14T07:34:59;102329.69;;;17.50
67509;BMP280;54354;44.724;11.284;2022-11-14T07:37:42;102326.16;;;17.53
67509;BMP280;54354;44.724;11.284;2022-11-14T07:40:26;102330.72;;;17.56
67509;BMP280;54354;44.724;11.284;2022-11-14T07:43:10;102329.94;;;17.56
67509;BMP280;54354;44.724;11.284;2022-11-14T07:45:59;102335.69;;;17.54
67509;BMP280;54354;44.724;11.284;2022-11-14T07:48:43;102339.00;;;17.62
67509;BMP280;54354;44.724;11.284;2022-11-14T07:51:28;102338.94;;;17.66
67509;BMP280;54354;44.724;11.284;2022-11-14T07:54:12;102341.19;;;17.67
67509;BMP280;54354;44.724;11.284;2022-11-14T07:56:55;102338.03;;;17.72
67509;BMP280;54354;44.724;11.284;2022-11-14T07:59:39;102342.25;;;17.73
67509;BMP280;54354;44.724;11.284;2022-11-14T08:02:23;102339.09;;;17.75
67509;BMP280;54354;44.724;11.284;2022-11-14T08:05:07;102333.00;;;17.74
67509;BMP280;54354;44.724;11.284;2022-11-14T08:07:52;102332.25;;;17.74
67509;BMP280;54354;44.724;11.284;2022-11-14T08:10:36;102335.25;;;17.76
67509;BMP280;54354;44.724;11.284;2022-11-14T08:13:20;102331.72;;;17.79
67509;BMP280;54354;44.724;11.284;2022-11-14T08:16:08;102328.28;;;17.78
67509;BMP280;54354;44.724;11.284;2022-11-14T08:18:55;102339.16;;;17.91
67509;BMP280;54354;44.724;11.284;2022-11-14T08:21:39;102337.13;;;17.95
67509;BMP280;54354;44.724;11.284;2022-11-14T08:24:23;102342.41;;;17.99
67509;BMP280;54354;44.724;11.284;2022-11-14T08:27:07;102339.22;;;18.04
67509;BMP280;54354;44.724;11.284;2022-11-14T08:29:51;102333.78;;;18.07
67509;BMP280;54354;44.724;11.284;2022-11-14T08:32:35;102344.44;;;18.11
67509;BMP280;54354;44.724;11.284;2022-11-14T08:35:20;102336.72;;;18.13
67509;BMP280;54354;44.724;11.284;2022-11-14T08:38:05;102339.31;;;18.17
67509;BMP280;54354;44.724;11.284;2022-11-14T08:40:49;102339.56;;;18.22
67509;BMP280;54354;44.724;11.284;2022-11-14T08:43:33;102339.00;;;18.31
67509;BMP280;54354;44.724;11.284;2022-11-14T08:46:16;102336.09;;;18.38
67509;BMP280;54354;44.724;11.284;2022-11-14T08:49:00;102338.28;;;18.43
67509;BMP280;54354;44.724;11.284;2022-11-14T08:51:44;102332.81;;;18.47
67509;BMP280;54354;44.724;11.284;2022-11-14T08:54:28;102335.84;;;18.49
67509;BMP280;54354;44.724;11.284;2022-11-14T08:57:12;102330.50;;;18.49
67509;BMP280;54354;44.724;11.284;2022-11-14T08:59:58;102330.81;;;18.51
67509;BMP280;54354;44.724;11.284;2022-11-14T09:02:42;102322.25;;;18.56
67509;BMP280;54354;44.724;11.284;2022-11-14T09:05:26;102325.91;;;18.62
67509;BMP280;54354;44.724;11.284;2022-11-14T09:08:10;102320.06;;;18.67
67509;BMP280;54354;44.724;11.284;2022-11-14T09:10:54;102319.94;;;18.70
67509;BMP280;54354;44.724;11.284;2022-11-14T09:13:39;102316.00;;;18.75
67509;BMP280;54354;44.724;11.284;2022-11-14T09:16:22;102309.69;;;18.82
67509;BMP280;54354;44.724;11.284;2022-11-14T09:19:06;102309.94;;;18.87
67509;BMP280;54354;44.724;11.284;2022-11-14T09:21:50;102309.06;;;18.90
67509;BMP280;54354;44.724;11.284;2022-11-14T09:24:34;102303.19;;;18.95
67509;BMP280;54354;44.724;11.284;2022-11-14T09:27:18;102295.78;;;18.99
67509;BMP280;54354;44.724;11.284;2022-11-14T09:30:03;102296.28;;;19.07
67509;BMP280;54354;44.724;11.284;2022-11-14T09:32:48;102300.09;;;19.10
67509;BMP280;54354;44.724;11.284;2022-11-14T09:35:32;102286.97;;;19.12
67509;BMP280;54354;44.724;11.284;2022-11-14T09:38:16;102288.91;;;19.11
67509;BMP280;54354;44.724;11.284;2022-11-14T09:41:23;102294.28;;;19.11
67509;BMP280;54354;44.724;11.284;2022-11-14T09:47:17;102292.66;;;19.01
67509;BMP280;54354;44.724;11.284;2022-11-14T09:50:10;102293.41;;;19.02
67509;BMP280;54354;44.724;11.284;2022-11-14T09:53:24;102295.78;;;19.12
67509;BMP280;54354;44.724;11.284;2022-11-14T09:56:14;102288.72;;;19.06
67509;BMP280;54354;44.724;11.284;2022-11-14T09:59:01;102301.91;;;19.13
67509;BMP280;54354;44.724;11.284;2022-11-14T10:02:00;102288.16;;;19.11
67509;BMP280;54354;44.724;11.284;2022-11-14T10:17:16;102280.13;;;19.36
67509;BMP280;54354;44.724;11.284;2022-11-14T10:26:28;102268.94;;;19.50
67509;BMP280;54354;44.724;11.284;2022-11-14T10:29:35;102271.94;;;19.52
67509;BMP280;54354;44.724;11.284;2022-11-14T10:35:20;102263.66;;;19.60
67509;BMP280;54354;44.724;11.284;2022-11-14T10:40:52;102267.44;;;19.62
67509;BMP280;54354;44.724;11.284;2022-11-14T10:43:43;102261.19;;;19.65
67509;BMP280;54354;44.724;11.284;2022-11-14T10:46:36;102260.00;;;19.66
67509;BMP280;54354;44.724;11.284;2022-11-14T10:49:23;102261.09;;;19.69
67509;BMP280;54354;44.724;11.284;2022-11-14T10:52:15;102265.81;;;19.65
67509;BMP280;54354;44.724;11.284;2022-11-14T10:55:16;102264.09;;;19.71
67509;BMP280;54354;44.724;11.284;2022-11-14T10:58:01;102254.41;;;19.73
67509;BMP280;54354;44.724;11.284;2022-11-14T11:00:45;102249.75;;;19.74
67509;BMP280;54354;44.724;11.284;2022-11-14T11:03:42;102241.38;;;19.72
67509;BMP280;54354;44.724;11.284;2022-11-14T11:06:28;102242.25;;;19.69
67509;BMP280;54354;44.724;11.284;2022-11-14T11:09:14;102242.47;;;19.62
67509;BMP280;54354;44.724;11.284;2022-11-14T11:12:23;102239.28;;;19.54
67509;BMP280;54354;44.724;11.284;2022-11-14T11:15:14;102240.03;;;19.54
67509;BMP280;54354;44.724;11.284;2022-11-14T11:18:24;102233.38;;;19.59
67509;BMP280;54354;44.724;11.284;2022-11-14T11:21:12;102232.81;;;19.51
67509;BMP280;54354;44.724;11.284;2022-11-14T11:23:57;102235.94;;;19.50
67509;BMP280;54354;44.724;11.284;2022-11-14T11:26:41;102230.59;;;19.50
67509;BMP280;54354;44.724;11.284;2022-11-14T11:29:25;102222.94;;;19.48
67509;BMP280;54354;44.724;11.284;2022-11-14T11:32:09;102222.31;;;19.44
67509;BMP280;54354;44.724;11.284;2022-11-14T11:34:53;102213.38;;;19.47
67509;BMP280;54354;44.724;11.284;2022-11-14T11:37:52;102212.97;;;19.49
67509;BMP280;54354;44.724;11.284;2022-11-14T11:40:38;102221.22;;;19.54
67509;BMP280;54354;44.724;11.284;2022-11-14T11:46:18;102218.97;;;19.53
67509;BMP280;54354;44.724;11.284;2022-11-14T11:49:12;102213.16;;;19.54
67509;BMP280;54354;44.724;11.284;2022-11-14T11:52:03;102217.38;;;19.55
67509;BMP280;54354;44.724;11.284;2022-11-14T11:57:58;102208.44;;;19.59
67509;BMP280;54354;44.724;11.284;2022-11-14T12:00:44;102218.50;;;19.67
67509;BMP280;54354;44.724;11.284;2022-11-14T12:03:28;102215.69;;;19.71
67509;BMP280;54354;44.724;11.284;2022-11-14T12:06:17;102210.19;;;19.74
67509;BMP280;54354;44.724;11.284;2022-11-14T12:09:22;102212.34;;;19.79
67509;BMP280;54354;44.724;11.284;2022-11-14T12:12:16;102210.59;;;19.85
67509;BMP280;54354;44.724;11.284;2022-11-14T12:18:41;102208.41;;;19.93
67509;BMP280;54354;44.724;11.284;2022-11-14T12:21:37;102209.19;;;19.94
67509;BMP280;54354;44.724;11.284;2022-11-14T12:27:18;102196.66;;;20.00
67509;BMP280;54354;44.724;11.284;2022-11-14T12:30:22;102191.94;;;20.04
67509;BMP280;54354;44.724;11.284;2022-11-14T12:33:35;102191.59;;;20.02
67509;BMP280;54354;44.724;11.284;2022-11-14T12:36:26;102188.28;;;19.98
67509;BMP280;54354;44.724;11.284;2022-11-14T12:39:29;102190.09;;;20.01
67509;BMP280;54354;44.724;11.284;2022-11-14T12:42:18;102186.16;;;19.93
67509;BMP280;54354;44.724;11.284;2022-11-14T12:45:03;102190.53;;;19.99
67509;BMP280;54354;44.724;11.284;2022-11-14T12:48:14;102178.66;;;20.09
67509;BMP280;54354;44.724;11.284;2022-11-14T12:50:59;102174.66;;;20.14
67509;BMP280;54354;44.724;11.284;2022-11-14T12:53:44;102174.53;;;20.18
67509;BMP280;54354;44.724;11.284;2022-11-14T12:59:37;102177.66;;;20.16
67509;BMP280;54354;44.724;11.284;2022-11-14T13:05:48;102179.06;;;20.21
67509;BMP280;54354;44.724;11.284;2022-11-14T13:11:43;102167.75;;;20.13
67509;BMP280;54354;44.724;11.284;2022-11-14T13:14:48;102165.41;;;20.15
67509;BMP280;54354;44.724;11.284;2022-11-14T13:18:02;102169.41;;;20.10
67509;BMP280;54354;44.724;11.284;2022-11-14T13:24:21;102159.91;;;20.19
67509;BMP280;54354;44.724;11.284;2022-11-14T13:27:29;102151.28;;;20.24
67509;BMP280;54354;44.724;11.284;2022-11-14T13:30:14;102157.69;;;20.26
67509;BMP280;54354;44.724;11.284;2022-11-14T13:32:58;102159.94;;;20.28
67509;BMP280;54354;44.724;11.284;2022-11-14T13:35:49;102158.00;;;20.28
67509;BMP280;54354;44.724;11.284;2022-11-14T13:50:55;102141.31;;;20.33
67509;BMP280;54354;44.724;11.284;2022-11-14T13:53:40;102140.97;;;20.31
67509;BMP280;54354;44.724;11.284;2022-11-14T14:15:40;102119.56;;;19.97
67509;BMP280;54354;44.724;11.284;2022-11-14T14:24:12;102124.84;;;19.88
67509;BMP280;54354;44.724;11.284;2022-11-14T14:30:10;102110.38;;;19.85
67509;BMP280;54354;44.724;11.284;2022-11-14T14:35:52;102111.41;;;19.88
67509;BMP280;54354;44.724;11.284;2022-11-14T14:38:36;102105.41;;;19.83
67509;BMP280;54354;44.724;11.284;2022-11-14T14:41:21;102102.88;;;19.80
67509;BMP280;54354;44.724;11.284;2022-11-14T14:44:10;102103.22;;;19.82
67509;BMP280;54354;44.724;11.284;2022-11-14T14:46:58;102114.38;;;19.80
67509;BMP280;54354;44.724;11.284;2022-11-14T14:49:58;102106.44;;;19.77
67509;BMP280;54354;44.724;11.284;2022-11-14T14:52:44;102108.78;;;19.75
67509;BMP280;54354;44.724;11.284;2022-11-14T14:55:31;102113.13;;;19.72
67509;BMP280;54354;44.724;11.284;2022-11-14T15:01:20;102112.50;;;19.68
67509;BMP280;54354;44.724;11.284;2022-11-14T15:04:07;102113.47;;;19.62
67509;BMP280;54354;44.724;11.284;2022-11-14T15:06:52;102116.59;;;19.60
67509;BMP280;54354;44.724;11.284;2022-11-14T15:09:53;102114.50;;;19.55
67509;BMP280;54354;44.724;11.284;2022-11-14T15:12:39;102111.88;;;19.51
67509;BMP280;54354;44.724;11.284;2022-11-14T15:15:23;102115.44;;;19.48
67509;BMP280;54354;44.724;11.284;2022-11-14T15:18:22;102118.41;;;19.41
67509;BMP280;54354;44.724;11.284;2022-11-14T15:24:20;102127.31;;;19.38
67509;BMP280;54354;44.724;11.284;2022-11-14T15:27:10;102119.91;;;19.29
67509;BMP280;54354;44.724;11.284;2022-11-14T15:29:59;102115.72;;;19.28
67509;BMP280;54354;44.724;11.284;2022-11-14T15:32:55;102109.69;;;19.24
67509;BMP280;54354;44.724;11.284;2022-11-14T15:35:40;102111.66;;;19.24
67509;BMP280;54354;44.724;11.284;2022-11-14T15:38:24;102116.06;;;19.18
67509;BMP280;54354;44.724;11.284;2022-11-14T15:41:22;102115.72;;;19.16
67509;BMP280;54354;44.724;11.284;2022-11-14T15:44:32;102111.13;;;19.16
67509;BMP280;54354;44.724;11.284;2022-11-14T15:47:24;102105.56;;;19.11
67509;BMP280;54354;44.724;11.284;2022-11-14T15:53:15;102100.19;;;18.98
67509;BMP280;54354;44.724;11.284;2022-11-14T15:56:00;102103.34;;;18.96
67509;BMP280;54354;44.724;11.284;2022-11-14T15:58:44;102118.03;;;18.92
67509;BMP280;54354;44.724;11.284;2022-11-14T16:01:28;102120.81;;;18.88
67509;BMP280;54354;44.724;11.284;2022-11-14T16:04:20;102101.91;;;18.79
67509;BMP280;54354;44.724;11.284;2022-11-14T16:07:05;102107.28;;;18.79
67509;BMP280;54354;44.724;11.284;2022-11-14T16:09:49;102107.81;;;18.74
67509;BMP280;54354;44.724;11.284;2022-11-14T16:12:33;102114.06;;;18.71
67509;BMP280;54354;44.724;11.284;2022-11-14T16:15:19;102105.03;;;18.65
67509;BMP280;54354;44.724;11.284;2022-11-14T16:18:04;102109.63;;;18.64
67509;BMP280;54354;44.724;11.284;2022-11-14T16:20:49;102109.75;;;18.61
67509;BMP280;54354;44.724;11.284;2022-11-14T16:23:34;102116.75;;;18.58
67509;BMP280;54354;44.724;11.284;2022-11-14T16:26:18;102114.88;;;18.55
67509;BMP280;54354;44.724;11.284;2022-11-14T16:29:02;102120.81;;;18.50
67509;BMP280;54354;44.724;11.284;2022-11-14T16:31:45;102116.28;;;18.47
67509;BMP280;54354;44.724;11.284;2022-11-14T16:34:31;102114.78;;;18.46
67509;BMP280;54354;44.724;11.284;2022-11-14T16:37:14;102115.63;;;18.43
67509;BMP280;54354;44.724;11.284;2022-11-14T16:39:59;102117.25;;;18.40
67509;BMP280;54354;44.724;11.284;2022-11-14T16:42:43;102119.72;;;18.35
67509;BMP280;54354;44.724;11.284;2022-11-14T16:45:27;102115.19;;;18.32
67509;BMP280;54354;44.724;11.284;2022-11-14T16:48:11;102118.31;;;18.30
67509;BMP280;54354;44.724;11.284;2022-11-14T16:50:59;102119.22;;;18.24
67509;BMP280;54354;44.724;11.284;2022-11-14T16:53:43;102121.06;;;18.27
67509;BMP280;54354;44.724;11.284;2022-11-14T16:56:27;102116.91;;;18.26
67509;BMP280;54354;44.724;11.284;2022-11-14T16:59:13;102114.22;;;18.26
67509;BMP280;54354;44.724;11.284;2022-11-14T17:01:58;102113.88;;;18.24
67509;BMP280;54354;44.724;11.284;2022-11-14T17:04:42;102116.66;;;18.20
67509;BMP280;54354;44.724;11.284;2022-11-14T17:07:27;102127.94;;;18.15
67509;BMP280;54354;44.724;11.284;2022-11-14T17:10:14;102117.72;;;18.10
67509;BMP280;54354;44.724;11.284;2022-11-14T17:12:58;102124.34;;;18.05
67509;BMP280;54354;44.724;11.284;2022-11-14T17:15:42;102121.41;;;18.00
67509;BMP280;54354;44.724;11.284;2022-11-14T17:18:26;102124.63;;;17.95
67509;BMP280;54354;44.724;11.284;2022-11-14T17:21:11;102122.81;;;17.92
67509;BMP280;54354;44.724;11.284;2022-11-14T17:23:58;102122.13;;;17.87
67509;BMP280;54354;44.724;11.284;2022-11-14T17:26:44;102127.16;;;17.85
67509;BMP280;54354;44.724;11.284;2022-11-14T17:29:28;102124.13;;;17.83
67509;BMP280;54354;44.724;11.284;2022-11-14T17:32:12;102127.66;;;17.80
67509;BMP280;54354;44.724;11.284;2022-11-14T17:34:56;102117.44;;;17.75
67509;BMP280;54354;44.724;11.284;2022-11-14T17:37:40;102121.75;;;17.73
67509;BMP280;54354;44.724;11.284;2022-11-14T17:40:24;102129.34;;;17.74
67509;BMP280;54354;44.724;11.284;2022-11-14T17:43:08;102130.56;;;17.73
67509;BMP280;54354;44.724;11.284;2022-11-14T17:45:56;102135.22;;;17.69
67509;BMP280;54354;44.724;11.284;2022-11-14T17:48:40;102128.03;;;17.66
67509;BMP280;54354;44.724;11.284;2022-11-14T17:51:25;102132.72;;;17.62
67509;BMP280;54354;44.724;11.284;2022-11-14T17:54:09;102139.25;;;17.61
67509;BMP280;54354;44.724;11.284;2022-11-14T17:56:53;102135.16;;;17.56
67509;BMP280;54354;44.724;11.284;2022-11-14T17:59:37;102137.47;;;17.54
67509;BMP280;54354;44.724;11.284;2022-11-14T18:02:23;102131.81;;;17.52
67509;BMP280;54354;44.724;11.284;2022-11-14T18:05:07;102136.81;;;17.50
67509;BMP280;54354;44.724;11.284;2022-11-14T18:07:51;102135.41;;;17.46
67509;BMP280;54354;44.724;11.284;2022-11-14T18:10:36;102135.50;;;17.42
67509;BMP280;54354;44.724;11.284;2022-11-14T18:13:20;102140.50;;;17.40
67509;BMP280;54354;44.724;11.284;2022-11-14T18:16:11;102132.66;;;17.33
67509;BMP280;54354;44.724;11.284;2022-11-14T18:18:55;102133.72;;;17.36
67509;BMP280;54354;44.724;11.284;2022-11-14T18:21:39;102139.19;;;17.32
67509;BMP280;54354;44.724;11.284;2022-11-14T18:24:26;102140.00;;;17.29
67509;BMP280;54354;44.724;11.284;2022-11-14T18:27:09;102143.09;;;17.27
67509;BMP280;54354;44.724;11.284;2022-11-14T18:29:53;102146.59;;;17.24
67509;BMP280;54354;44.724;11.284;2022-11-14T18:32:37;102149.72;;;17.23
67509;BMP280;54354;44.724;11.284;2022-11-14T18:35:21;102144.84;;;17.18
67509;BMP280;54354;44.724;11.284;2022-11-14T18:38:05;102141.44;;;17.17
67509;BMP280;54354;44.724;11.284;2022-11-14T18:40:52;102133.78;;;17.16
67509;BMP280;54354;44.724;11.284;2022-11-14T18:43:36;102145.69;;;17.15
67509;BMP280;54354;44.724;11.284;2022-11-14T18:46:22;102146.91;;;17.10
67509;BMP280;54354;44.724;11.284;2022-11-14T18:49:07;102141.16;;;17.12
67509;BMP280;54354;44.724;11.284;2022-11-14T18:51:52;102142.72;;;17.09
67509;BMP280;54354;44.724;11.284;2022-11-14T18:54:37;102136.28;;;17.07
67509;BMP280;54354;44.724;11.284;2022-11-14T18:57:23;102134.03;;;17.05
67509;BMP280;54354;44.724;11.284;2022-11-14T19:00:08;102139.03;;;17.03
67509;BMP280;54354;44.724;11.284;2022-11-14T19:02:52;102137.88;;;17.04